createdAt,value
2023-03-19T00:02:16.173Z,99309.50
2023-03-19T00:04:43.504Z,99306.09
2023-03-19T00:07:10.232Z,99307.88
2023-03-19T00:09:36.881Z,99298.44
2023-03-19T00:12:03.605Z,99296.75
2023-03-19T00:14:30.938Z,99295.03
2023-03-19T00:16:57.565Z,99312.81
2023-03-19T00:19:24.147Z,99310.25
2023-03-19T00:21:51.242Z,99305.09
2023-03-19T00:24:17.790Z,99307.72
2023-03-19T00:26:44.419Z,99308.47
2023-03-19T00:29:11.184Z,99305.91
2023-03-19T00:31:37.719Z,99305.94
2023-03-19T00:34:04.379Z,99311.84
2023-03-19T00:36:31.132Z,99310.97
2023-03-19T00:38:57.960Z,99305.88
2023-03-19T00:41:24.830Z,99308.44
2023-03-19T00:43:55.982Z,99316.19
2023-03-19T00:46:23.949Z,99316.84
2023-03-19T00:48:53.913Z,99317.59
2023-03-19T00:51:20.637Z,99320.28
2023-03-19T00:53:47.174Z,99317.84
2023-03-19T00:56:15.532Z,99328.19
2023-03-19T00:58:42.195Z,99331.53
2023-03-19T01:01:09.620Z,99327.19
2023-03-19T01:03:36.768Z,99330.66
2023-03-19T01:06:04.883Z,99333.22
2023-03-19T01:08:31.919Z,99328.97
2023-03-19T01:11:08.535Z,99330.63
2023-03-19T01:13:35.321Z,99328.97
2023-03-19T01:16:02.419Z,99328.06
2023-03-19T01:18:29.268Z,99326.47
2023-03-19T01:20:56.076Z,99329.94
2023-03-19T01:23:22.755Z,99329.06
2023-03-19T01:25:49.298Z,99332.50
2023-03-19T01:28:15.944Z,99330.75
2023-03-19T01:30:42.460Z,99338.50
2023-03-19T01:33:09.039Z,99336.72
2023-03-19T01:35:36.073Z,99342.66
2023-03-19T01:38:02.641Z,99331.56
2023-03-19T01:40:29.608Z,99334.06
2023-03-19T01:42:57.419Z,99333.16
2023-03-19T01:45:35.033Z,99332.94
2023-03-19T01:48:02.344Z,99336.19
2023-03-19T01:50:37.957Z,99342.00
2023-03-19T01:53:04.639Z,99343.97
2023-03-19T01:55:31.400Z,99352.19
2023-03-19T01:57:57.999Z,99350.66
2023-03-19T02:00:24.552Z,99357.50
2023-03-19T02:02:55.411Z,99371.91
2023-03-19T02:05:25.979Z,99375.38
2023-03-19T02:07:56.645Z,99387.41
2023-03-19T02:10:23.720Z,99391.44
2023-03-19T02:12:50.347Z,99400.84
2023-03-19T02:15:16.995Z,99406.59
2023-03-19T02:17:43.964Z,99400.72
2023-03-19T02:20:25.510Z,99398.34
2023-03-19T02:23:10.393Z,99402.31
2023-03-19T02:25:54.966Z,99406.63
2023-03-19T02:28:23.546Z,99403.75
2023-03-19T02:30:50.199Z,99398.75
2023-03-19T02:33:18.940Z,99401.19
2023-03-19T02:35:49.274Z,99394.41
2023-03-19T02:38:16.318Z,99392.00
2023-03-19T02:40:52.546Z,99385.06
2023-03-19T02:43:21.809Z,99383.53
2023-03-19T02:45:48.703Z,99378.06
2023-03-19T02:48:15.464Z,99371.91
2023-03-19T02:50:42.146Z,99376.97
2023-03-19T02:53:08.704Z,99370.25
2023-03-19T02:55:35.550Z,99375.34
2023-03-19T02:58:02.672Z,99360.81
2023-03-19T03:00:29.376Z,99375.16
2023-03-19T03:02:58.015Z,99371.16
2023-03-19T03:05:24.622Z,99365.94
2023-03-19T03:07:51.165Z,99373.59
2023-03-19T03:10:18.150Z,99366.78
2023-03-19T03:12:44.710Z,99374.53
2023-03-19T03:15:12.634Z,99370.94
2023-03-19T03:17:41.308Z,99373.22
2023-03-19T03:20:11.898Z,99378.59
2023-03-19T03:22:39.396Z,99372.06
2023-03-19T03:25:06.953Z,99379.25
2023-03-19T03:27:33.530Z,99371.72
2023-03-19T03:30:00.071Z,99361.19
2023-03-19T03:32:26.662Z,99371.56
2023-03-19T03:34:53.192Z,99369.00
2023-03-19T03:37:19.810Z,99375.75
2023-03-19T03:39:46.592Z,99372.63
2023-03-19T03:42:13.488Z,99367.44
2023-03-19T03:44:40.027Z,99368.13
2023-03-19T03:47:06.783Z,99377.53
2023-03-19T03:49:33.561Z,99380.03
2023-03-19T03:52:00.499Z,99376.97
2023-03-19T03:54:27.082Z,99381.94
2023-03-19T03:56:53.565Z,99375.88
2023-03-19T03:59:20.592Z,99382.09
2023-03-19T04:01:47.377Z,99382.16
2023-03-19T04:04:15.540Z,99381.41
2023-03-19T04:06:42.206Z,99393.19
2023-03-19T04:09:09.214Z,99395.00
2023-03-19T04:11:36.515Z,99394.16
2023-03-19T04:14:03.485Z,99394.16
2023-03-19T04:16:30.822Z,99396.84
2023-03-19T04:18:57.352Z,99406.25
2023-03-19T04:21:23.910Z,99395.91
2023-03-19T04:23:50.462Z,99405.81
2023-03-19T04:26:17.100Z,99411.75
2023-03-19T04:28:44.225Z,99415.47
2023-03-19T04:31:10.915Z,99409.56
2023-03-19T04:33:37.592Z,99413.16
2023-03-19T04:36:04.758Z,99420.88
2023-03-19T04:38:32.027Z,99421.63
2023-03-19T04:40:58.872Z,99423.41
2023-03-19T04:43:25.647Z,99421.38
2023-03-19T04:45:52.500Z,99426.63
2023-03-19T04:48:19.041Z,99433.22
2023-03-19T04:50:47.251Z,99437.78
2023-03-19T04:53:13.909Z,99439.47
2023-03-19T04:55:41.058Z,99440.88
2023-03-19T04:58:09.168Z,99442.34
2023-03-19T05:00:36.283Z,99453.25
2023-03-19T05:03:02.822Z,99446.56
2023-03-19T05:05:29.414Z,99454.28
2023-03-19T05:07:57.436Z,99458.09
2023-03-19T05:10:24.120Z,99458.69
2023-03-19T05:12:50.697Z,99457.09
2023-03-19T05:15:17.663Z,99457.09
2023-03-19T05:17:44.173Z,99464.88
2023-03-19T05:20:12.697Z,99463.09
2023-03-19T05:22:39.278Z,99471.41
2023-03-19T05:25:06.901Z,99470.00
2023-03-19T05:27:33.516Z,99475.88
2023-03-19T05:30:01.511Z,99477.91
2023-03-19T05:32:28.735Z,99480.25
2023-03-19T05:34:55.273Z,99485.03
2023-03-19T05:37:21.991Z,99479.22
2023-03-19T05:39:48.519Z,99485.25
2023-03-19T05:42:15.641Z,99485.16
2023-03-19T05:44:42.387Z,99488.38
2023-03-19T05:47:10.406Z,99491.81
2023-03-19T05:49:36.944Z,99491.09
2023-03-19T05:52:03.568Z,99491.03
2023-03-19T05:54:30.274Z,99489.56
2023-03-19T05:56:56.879Z,99493.59
2023-03-19T05:59:23.420Z,99500.44
2023-03-19T06:01:50.766Z,99496.22
2023-03-19T06:04:17.418Z,99507.19
2023-03-19T06:06:43.986Z,99513.97
2023-03-19T06:09:10.485Z,99521.78
2023-03-19T06:11:39.554Z,99520.31
2023-03-19T06:14:06.892Z,99531.13
2023-03-19T06:16:33.461Z,99529.38
2023-03-19T06:19:00.144Z,99517.69
2023-03-19T06:21:29.710Z,99529.38
2023-03-19T06:23:56.702Z,99535.28
2023-03-19T06:26:23.772Z,99540.34
2023-03-19T06:28:51.074Z,99535.28
2023-03-19T06:31:18.156Z,99546.78
2023-03-19T06:33:44.921Z,99545.56
2023-03-19T06:36:11.624Z,99548.31
2023-03-19T06:38:38.159Z,99555.19
2023-03-19T06:41:04.930Z,99552.63
2023-03-19T06:43:31.916Z,99552.41
2023-03-19T06:45:58.512Z,99552.09
2023-03-19T06:48:25.145Z,99557.81
2023-03-19T06:50:51.699Z,99558.75
2023-03-19T06:53:18.218Z,99563.13
2023-03-19T06:55:46.867Z,99569.59
2023-03-19T06:58:13.506Z,99567.59
2023-03-19T07:00:40.082Z,99574.56
2023-03-19T07:03:07.553Z,99583.91
2023-03-19T07:05:34.160Z,99577.34
2023-03-19T07:08:00.826Z,99582.22
2023-03-19T07:10:27.473Z,99579.78
2023-03-19T07:12:54.719Z,99576.63
2023-03-19T07:15:21.675Z,99582.72
2023-03-19T07:17:49.060Z,99598.13
2023-03-19T07:20:16.220Z,99597.56
2023-03-19T07:22:42.771Z,99601.41
2023-03-19T07:25:09.646Z,99605.38
2023-03-19T07:27:36.166Z,99599.53
2023-03-19T07:30:02.907Z,99605.88
2023-03-19T07:32:29.442Z,99613.63
2023-03-19T07:34:56.190Z,99616.19
2023-03-19T07:37:22.799Z,99621.13
2023-03-19T07:39:49.372Z,99615.59
2023-03-19T07:42:15.958Z,99627.28
2023-03-19T07:44:42.464Z,99628.69
2023-03-19T07:47:22.538Z,99631.41
2023-03-19T07:49:52.892Z,99641.78
2023-03-19T07:52:19.408Z,99659.31
2023-03-19T07:54:46.013Z,99668.97
2023-03-19T07:57:12.633Z,99677.78
2023-03-19T07:59:39.210Z,99681.47
2023-03-19T08:02:06.479Z,99693.59
2023-03-19T08:04:33.153Z,99686.34
2023-03-19T08:07:00.671Z,99678.88
2023-03-19T08:09:28.139Z,99676.28
2023-03-19T08:11:54.804Z,99676.28
2023-03-19T08:14:22.626Z,99673.38
2023-03-19T08:16:49.898Z,99677.44
2023-03-19T08:19:16.952Z,99681.19
2023-03-19T08:21:43.498Z,99679.44
2023-03-19T08:24:10.009Z,99679.88
2023-03-19T08:26:37.652Z,99686.97
2023-03-19T08:29:04.268Z,99683.59
2023-03-19T08:31:30.822Z,99688.59
2023-03-19T08:34:00.139Z,99677.91
2023-03-19T08:36:27.521Z,99675.22
2023-03-19T08:38:54.926Z,99682.22
2023-03-19T08:41:22.446Z,99679.13
2023-03-19T08:43:49.318Z,99677.75
2023-03-19T08:46:16.431Z,99673.28
2023-03-19T08:48:43.047Z,99683.34
2023-03-19T08:51:09.993Z,99692.56
2023-03-19T08:53:37.804Z,99705.16
2023-03-19T08:56:07.940Z,99720.97
2023-03-19T08:58:35.177Z,99730.28
2023-03-19T09:01:07.800Z,99748.22
2023-03-19T09:03:34.833Z,99758.53
2023-03-19T09:06:02.870Z,99763.78
2023-03-19T09:08:31.190Z,99791.34
2023-03-19T09:10:58.963Z,99817.72
2023-03-19T09:13:26.164Z,99860.31
2023-03-19T09:15:53.089Z,99877.78
2023-03-19T09:18:26.093Z,99900.88
2023-03-19T09:20:54.162Z,99928.47
2023-03-19T09:23:21.848Z,99929.34
2023-03-19T09:25:48.986Z,99946.28
2023-03-19T09:28:16.074Z,99904.25
2023-03-19T09:30:45.426Z,99874.56
2023-03-19T09:33:12.059Z,99857.34
2023-03-19T09:35:39.836Z,99825.81
2023-03-19T09:38:07.028Z,99838.44
2023-03-19T09:40:36.587Z,99843.22
2023-03-19T09:43:08.603Z,99846.56
2023-03-19T09:45:35.829Z,99829.31
2023-03-19T09:48:07.853Z,99817.94
2023-03-19T09:50:35.134Z,99811.63
2023-03-19T09:53:17.005Z,99787.28
2023-03-19T09:55:54.219Z,99792.03
2023-03-19T09:58:24.534Z,99782.94
2023-03-19T10:00:53.280Z,99772.91
2023-03-19T10:03:25.617Z,99779.06
2023-03-19T10:06:13.524Z,99776.53
2023-03-19T10:08:47.864Z,99776.84
2023-03-19T10:11:16.982Z,99788.69
2023-03-19T10:13:55.529Z,99804.78
2023-03-19T10:16:26.270Z,99815.13
2023-03-19T10:18:58.490Z,99823.97
2023-03-19T10:21:34.777Z,99839.44
2023-03-19T10:24:10.865Z,99903.81
2023-03-19T10:26:37.381Z,99946.06
2023-03-19T10:29:06.783Z,99982.00
2023-03-19T10:32:10.649Z,100026.91
2023-03-19T10:34:41.805Z,100108.13
2023-03-19T10:37:17.555Z,100154.56
2023-03-19T10:39:46.284Z,100150.22
2023-03-19T10:42:50.058Z,100172.13
2023-03-19T10:45:31.778Z,100198.59
2023-03-19T10:48:00.449Z,100218.81
2023-03-19T10:50:35.686Z,100207.88
2023-03-19T10:53:14.540Z,100174.16
2023-03-19T10:56:00.942Z,100122.78
2023-03-19T10:58:29.803Z,100067.75
2023-03-19T11:00:59.292Z,100066.81
2023-03-19T11:03:34.854Z,100075.56
2023-03-19T11:06:19.885Z,100130.59
2023-03-19T11:08:55.895Z,100135.38
2023-03-19T11:11:26.467Z,100185.22
2023-03-19T11:13:53.304Z,100208.34
2023-03-19T11:16:19.937Z,100214.72
2023-03-19T11:18:49.439Z,100202.84
2023-03-19T11:21:29.377Z,100189.03
2023-03-19T11:24:04.264Z,100183.47
2023-03-19T11:26:31.366Z,100183.78
2023-03-19T11:29:04.260Z,100182.66
2023-03-19T11:31:39.171Z,100176.56
2023-03-19T11:34:51.377Z,100178.13
2023-03-19T11:37:48.081Z,100154.75
2023-03-19T11:40:25.414Z,100161.81
2023-03-19T11:43:03.883Z,100152.88
2023-03-19T11:45:45.423Z,100168.59
2023-03-19T11:48:39.525Z,100189.03
2023-03-19T11:51:05.966Z,100220.06
2023-03-19T11:53:53.365Z,100237.53
2023-03-19T11:56:55.656Z,100232.78
2023-03-19T11:59:41.172Z,100247.47
2023-03-19T12:02:16.734Z,100250.09
2023-03-19T12:04:49.438Z,100251.34
2023-03-19T12:07:24.672Z,100251.59
2023-03-19T12:10:17.713Z,100251.88
2023-03-19T12:13:00.788Z,100256.38
2023-03-19T12:15:37.462Z,100256.59
2023-03-19T12:18:16.482Z,100261.13
2023-03-19T12:21:30.779Z,100264.00
2023-03-19T12:24:11.615Z,100242.91
2023-03-19T12:26:43.915Z,100258.97
2023-03-19T12:29:24.461Z,100251.00
2023-03-19T12:32:02.623Z,100263.22
2023-03-19T12:34:41.651Z,100260.28
2023-03-19T12:37:34.361Z,100260.56
2023-03-19T12:40:04.159Z,100267.28
2023-03-19T12:42:37.808Z,100251.66
2023-03-19T12:45:15.351Z,100255.47
2023-03-19T12:47:44.349Z,100261.03
2023-03-19T12:50:15.392Z,100264.97
2023-03-19T12:52:46.734Z,100271.56
2023-03-19T12:55:43.737Z,100257.84
2023-03-19T12:58:34.891Z,100204.16
2023-03-19T13:01:09.155Z,100152.22
2023-03-19T13:03:57.006Z,100148.94
2023-03-19T13:06:28.557Z,100134.41
2023-03-19T13:09:46.329Z,100153.06
2023-03-19T13:12:26.027Z,100214.00
2023-03-19T13:14:56.249Z,100229.47
2023-03-19T13:17:28.525Z,100232.78
2023-03-19T13:19:57.056Z,100238.59
2023-03-19T13:22:32.892Z,100242.47
2023-03-19T13:25:01.915Z,100236.81
2023-03-19T13:27:34.074Z,100241.13
2023-03-19T13:30:08.255Z,100240.50
2023-03-19T13:32:45.894Z,100241.31
2023-03-19T13:35:18.590Z,100240.09
2023-03-19T13:37:55.942Z,100226.03
2023-03-19T13:40:44.547Z,100228.66
2023-03-19T13:43:30.538Z,100244.53
2023-03-19T13:46:12.831Z,100235.59
2023-03-19T13:49:10.008Z,100229.16
2023-03-19T13:51:36.708Z,100201.56
2023-03-19T13:54:13.018Z,100157.59
2023-03-19T13:57:08.839Z,100143.03
2023-03-19T13:59:37.730Z,100138.84
2023-03-19T14:02:25.430Z,100147.75
2023-03-19T14:05:02.437Z,100150.13
2023-03-19T14:07:37.032Z,100172.13
2023-03-19T14:10:15.306Z,100189.47
2023-03-19T14:12:44.195Z,100207.53
2023-03-19T14:15:10.664Z,100210.66
2023-03-19T14:18:01.673Z,100224.88
2023-03-19T14:20:39.285Z,100238.94
2023-03-19T14:23:11.347Z,100220.47
2023-03-19T14:26:19.638Z,100220.13
2023-03-19T14:28:52.984Z,100207.94
2023-03-19T14:31:22.804Z,100212.84
2023-03-19T14:33:52.371Z,100213.16
2023-03-19T14:36:22.028Z,100225.09
2023-03-19T14:38:59.150Z,100215.41
2023-03-19T14:41:28.767Z,100215.22
2023-03-19T14:43:58.373Z,100208.66
2023-03-19T14:46:30.973Z,100214.06
2023-03-19T14:49:36.304Z,100215.19
2023-03-19T14:52:25.557Z,100217.97
2023-03-19T14:55:09.600Z,100211.91
2023-03-19T14:57:36.337Z,100228.56
2023-03-19T15:00:07.408Z,100226.19
2023-03-19T15:02:38.763Z,100230.25
2023-03-19T15:05:38.230Z,100234.56
2023-03-19T15:08:12.403Z,100254.91
2023-03-19T15:11:17.155Z,100247.78
2023-03-19T15:14:17.708Z,100218.22
2023-03-19T15:17:21.413Z,100208.75
2023-03-19T15:19:48.192Z,100200.97
2023-03-19T15:22:19.380Z,100148.50
2023-03-19T15:24:47.365Z,100112.84
2023-03-19T15:27:32.378Z,100065.38
2023-03-19T15:30:09.640Z,100004.56
2023-03-19T15:33:02.839Z,99969.31
2023-03-19T15:35:36.401Z,99932.78
2023-03-19T15:38:09.115Z,99951.47
2023-03-19T15:40:37.352Z,99952.38
2023-03-19T15:43:04.294Z,99935.28
2023-03-19T15:45:34.032Z,99957.72
2023-03-19T15:48:17.243Z,99948.56
2023-03-19T15:50:48.500Z,99951.38
2023-03-19T15:53:21.251Z,99960.16
2023-03-19T15:55:52.965Z,99970.34
2023-03-19T15:58:29.305Z,99960.94
2023-03-19T16:00:56.811Z,99973.81
2023-03-19T16:03:37.718Z,99975.53
2023-03-19T16:06:07.837Z,99968.22
2023-03-19T16:08:34.504Z,99904.97
2023-03-19T16:11:34.654Z,99889.25
2023-03-19T16:14:11.644Z,99854.88
2023-03-19T16:16:40.607Z,99843.06
2023-03-19T16:19:29.659Z,99843.78
2023-03-19T16:21:56.872Z,99847.72
2023-03-19T16:24:37.555Z,99822.88
2023-03-19T16:27:12.613Z,99831.03
2023-03-19T16:29:44.788Z,99837.72
2023-03-19T16:32:11.459Z,99831.75
2023-03-19T16:34:52.085Z,99819.72
2023-03-19T16:37:40.121Z,99848.78
2023-03-19T16:40:13.154Z,99872.97
2023-03-19T16:42:42.796Z,99885.03
2023-03-19T16:45:30.060Z,99915.03
2023-03-19T16:47:58.564Z,99951.84
2023-03-19T16:50:43.589Z,99971.50
2023-03-19T16:53:30.002Z,99999.09
2023-03-19T16:55:58.972Z,99974.34
2023-03-19T16:58:31.555Z,99990.66
2023-03-19T17:00:59.176Z,100020.84
2023-03-19T17:03:26.170Z,100030.69
2023-03-19T17:05:53.201Z,100091.81
2023-03-19T17:08:22.136Z,100123.00
2023-03-19T17:10:52.473Z,100164.69
2023-03-19T17:13:29.796Z,100200.50
2023-03-19T17:15:59.414Z,100220.13
2023-03-19T17:18:29.403Z,100229.19
2023-03-19T17:21:06.416Z,100243.06
2023-03-19T17:23:34.569Z,100254.91
2023-03-19T17:26:03.099Z,100266.94
2023-03-19T17:28:32.385Z,100273.13
2023-03-19T17:30:59.016Z,100271.00
2023-03-19T17:33:28.383Z,100270.91
2023-03-19T17:35:57.698Z,100279.25
2023-03-19T17:38:33.273Z,100291.31
2023-03-19T17:41:00.182Z,100291.31
2023-03-19T17:43:26.701Z,100295.22
2023-03-19T17:45:55.498Z,100296.81
2023-03-19T17:48:25.739Z,100281.19
2023-03-19T17:50:57.834Z,100277.66
2023-03-19T17:53:24.820Z,100280.19
2023-03-19T17:55:51.316Z,100276.66
2023-03-19T17:58:20.942Z,100275.69
2023-03-19T18:00:49.374Z,100264.44
2023-03-19T18:03:18.644Z,100269.50
2023-03-19T18:05:45.690Z,100280.59
2023-03-19T18:08:18.359Z,100281.44
2023-03-19T18:10:45.423Z,100278.63
2023-03-19T18:13:12.083Z,100295.06
2023-03-19T18:15:42.369Z,100297.66
2023-03-19T18:18:16.713Z,100306.84
2023-03-19T18:20:44.228Z,100304.16
2023-03-19T18:23:11.725Z,100302.34
2023-03-19T18:25:38.427Z,100319.50
2023-03-19T18:28:05.524Z,100324.75
2023-03-19T18:30:35.142Z,100340.97
2023-03-19T18:33:05.543Z,100345.91
2023-03-19T18:35:39.326Z,100352.75
2023-03-19T18:38:14.848Z,100358.13
2023-03-19T18:40:41.360Z,100357.09
2023-03-19T18:43:10.140Z,100366.47
2023-03-19T18:45:37.442Z,100365.38
2023-03-19T18:48:16.648Z,100369.56
2023-03-19T18:50:43.251Z,100368.47
2023-03-19T18:53:11.434Z,100380.41
2023-03-19T18:55:37.990Z,100382.91
2023-03-19T18:58:05.440Z,100389.72
2023-03-19T19:00:35.057Z,100393.22
2023-03-19T19:03:02.836Z,100407.72
2023-03-19T19:05:31.514Z,100405.03
2023-03-19T19:08:02.866Z,100410.78
2023-03-19T19:10:36.520Z,100417.88
2023-03-19T19:13:03.499Z,100422.09
2023-03-19T19:15:35.976Z,100428.75
2023-03-19T19:18:31.578Z,100428.44
2023-03-19T19:20:58.860Z,100436.13
2023-03-19T19:23:30.424Z,100441.97
2023-03-19T19:25:57.134Z,100432.41
2023-03-19T19:28:28.062Z,100444.34
2023-03-19T19:30:57.482Z,100449.50
2023-03-19T19:33:28.011Z,100456.31
2023-03-19T19:35:55.930Z,100457.25
2023-03-19T19:38:22.639Z,100471.59
2023-03-19T19:40:52.676Z,100464.81
2023-03-19T19:43:22.847Z,100475.16
2023-03-19T19:45:52.728Z,100466.38
2023-03-19T19:48:25.482Z,100479.97
2023-03-19T19:50:53.586Z,100482.34
2023-03-19T19:53:20.809Z,100483.84
2023-03-19T19:55:47.800Z,100489.78
2023-03-19T19:58:32.312Z,100493.09
2023-03-19T20:01:04.623Z,100495.63
2023-03-19T20:03:33.316Z,100496.41
2023-03-19T20:06:00.697Z,100506.59
2023-03-19T20:08:28.561Z,100509.06
2023-03-19T20:10:55.296Z,100507.25
2023-03-19T20:13:26.218Z,100512.25
2023-03-19T20:15:55.824Z,100506.22
2023-03-19T20:18:24.633Z,100513.06
2023-03-19T20:20:52.944Z,100520.59
2023-03-19T20:23:20.855Z,100518.81
2023-03-19T20:25:47.860Z,100516.94
2023-03-19T20:28:23.935Z,100527.06
2023-03-19T20:30:52.144Z,100526.97
2023-03-19T20:33:19.404Z,100532.84
2023-03-19T20:35:46.715Z,100534.59
2023-03-19T20:38:14.565Z,100536.25
2023-03-19T20:40:45.862Z,100537.81
2023-03-19T20:43:34.670Z,100543.66
2023-03-19T20:46:05.079Z,100541.91
2023-03-19T20:48:33.752Z,100544.41
2023-03-19T20:51:02.084Z,100551.84
2023-03-19T20:53:28.765Z,100554.41
2023-03-19T20:55:55.335Z,100557.97
2023-03-19T20:58:35.110Z,100552.56
2023-03-19T21:01:02.772Z,100554.16
2023-03-19T21:03:32.081Z,100555.78
2023-03-19T21:06:04.912Z,100556.59
2023-03-19T21:08:32.511Z,100565.00
2023-03-19T21:10:59.760Z,100571.81
2023-03-19T21:13:27.273Z,100573.41
2023-03-19T21:15:54.257Z,100574.38
2023-03-19T21:18:21.372Z,100575.84
2023-03-19T21:20:53.904Z,100582.63
2023-03-19T21:23:23.586Z,100573.00
2023-03-19T21:25:50.283Z,100578.34
2023-03-19T21:28:28.042Z,100579.97
2023-03-19T21:30:54.717Z,100574.50
2023-03-19T21:33:32.883Z,100575.41
2023-03-19T21:36:01.343Z,100576.13
2023-03-19T21:38:28.612Z,100576.09
2023-03-19T21:40:59.074Z,100574.19
2023-03-19T21:43:52.581Z,100574.09
2023-03-19T21:46:24.685Z,100575.66
2023-03-19T21:48:52.705Z,100579.78
2023-03-19T21:51:19.414Z,100583.13
2023-03-19T21:53:46.028Z,100579.00
2023-03-19T21:56:25.048Z,100585.84
2023-03-19T21:58:52.485Z,100583.91
2023-03-19T22:01:24.599Z,100593.38
2023-03-19T22:03:57.618Z,100587.25
2023-03-19T22:06:25.219Z,100589.00
2023-03-19T22:08:53.976Z,100584.63
2023-03-19T22:11:28.445Z,100583.47
2023-03-19T22:14:04.175Z,100578.50
2023-03-19T22:16:32.340Z,100575.50
2023-03-19T22:18:59.222Z,100575.94
2023-03-19T22:21:25.755Z,100570.44
2023-03-19T22:23:52.339Z,100573.44
2023-03-19T22:26:25.930Z,100566.81
2023-03-19T22:28:53.053Z,100569.97
2023-03-19T22:31:20.201Z,100570.03
2023-03-19T22:33:48.758Z,100565.47
2023-03-19T22:36:15.846Z,100559.63
2023-03-19T22:38:44.940Z,100557.84
2023-03-19T22:41:32.239Z,100556.28
2023-03-19T22:44:00.890Z,100546.47
2023-03-19T22:46:28.199Z,100544.34
2023-03-19T22:48:55.713Z,100553.41
2023-03-19T22:51:24.330Z,100545.28
2023-03-19T22:53:51.679Z,100550.84
2023-03-19T22:56:20.024Z,100546.34
2023-03-19T22:58:47.674Z,100545.47
2023-03-19T23:01:20.690Z,100534.53
2023-03-19T23:03:48.501Z,100534.44
2023-03-19T23:06:29.311Z,100538.34
2023-03-19T23:08:56.780Z,100529.03
2023-03-19T23:11:24.372Z,100517.66
2023-03-19T23:13:51.174Z,100515.00
2023-03-19T23:16:23.617Z,100511.47
2023-03-19T23:18:51.479Z,100506.78
2023-03-19T23:21:19.215Z,100502.56
2023-03-19T23:23:46.332Z,100486.72
2023-03-19T23:26:23.350Z,100481.66
2023-03-19T23:28:50.045Z,100468.84
2023-03-19T23:31:16.666Z,100476.97
2023-03-19T23:33:46.096Z,100476.66
2023-03-19T23:36:12.875Z,100476.34
2023-03-19T23:38:39.449Z,100465.94
2023-03-19T23:41:07.380Z,100464.44
2023-03-19T23:43:34.652Z,100461.66
2023-03-19T23:46:02.369Z,100468.09
2023-03-19T23:48:35.314Z,100466.25
2023-03-19T23:51:02.633Z,100467.16
2023-03-19T23:53:30.238Z,100453.75
2023-03-19T23:56:05.254Z,100450.84
2023-03-19T23:58:43.172Z,100458.69
